sensor_id;sensor_type;location;lat;lon;timestamp;pressure;altitude;pressure_sealevel;temperature;humidity
54465;BME280;40374;49.480;20.016;2023-07-29T08:00:31;94558.00;;;23.88;100.00
54465;BME280;40374;49.480;20.016;2023-07-29T08:02:59;94552.59;;;24.78;100.00
54465;BME280;40374;49.480;20.016;2023-07-29T08:05:27;94544.81;;;25.46;100.00
54465;BME280;40374;49.480;20.016;2023-07-29T08:07:55;94543.13;;;26.00;100.00
54465;BME280;40374;49.480;20.016;2023-07-29T08:10:24;94531.78;;;26.38;100.00
54465;BME280;40374;49.480;20.016;2023-07-29T08:12:52;94546.00;;;26.97;100.00
54465;BME280;40374;49.480;20.016;2023-07-29T08:15:19;94536.41;;;27.66;100.00
54465;BME280;40374;49.480;20.016;2023-07-29T08:17:47;94534.75;;;27.90;100.00
54465;BME280;40374;49.480;20.016;2023-07-29T08:20:14;94526.84;;;27.92;100.00
54465;BME280;40374;49.480;20.016;2023-07-29T08:22:42;94520.53;;;27.92;100.00
54465;BME280;40374;49.480;20.016;2023-07-29T08:25:09;94533.97;;;27.93;100.00
54465;BME280;40374;49.480;20.016;2023-07-29T08:27:37;94528.22;;;28.29;100.00
54465;BME280;40374;49.480;20.016;2023-07-29T08:30:05;94533.84;;;28.19;88.97
54465;BME280;40374;49.480;20.016;2023-07-29T08:32:33;94535.22;;;27.71;85.98
54465;BME280;40374;49.480;20.016;2023-07-29T08:35:00;94535.31;;;27.21;84.61
54465;BME280;40374;49.480;20.016;2023-07-29T08:37:28;94529.81;;;26.92;94.95
54465;BME280;40374;49.480;20.016;2023-07-29T08:39:56;94534.97;;;27.01;100.00
54465;BME280;40374;49.480;20.016;2023-07-29T09:03:48;94505.06;;;25.40;82.99
54465;BME280;40374;49.480;20.016;2023-07-29T09:06:16;94514.81;;;25.23;84.35
54465;BME280;40374;49.480;20.016;2023-07-29T09:08:45;94512.31;;;25.07;89.12
54465;BME280;40374;49.480;20.016;2023-07-29T09:11:14;94488.81;;;25.17;91.86
54465;BME280;40374;49.480;20.016;2023-07-29T09:13:44;94521.97;;;25.38;81.58
54465;BME280;40374;49.480;20.016;2023-07-29T09:23:43;94512.94;;;25.45;95.70
54465;BME280;40374;49.480;20.016;2023-07-29T09:26:12;94519.38;;;25.74;84.76
54465;BME280;40374;49.480;20.016;2023-07-29T09:28:40;94514.34;;;25.94;84.09
54465;BME280;40374;49.480;20.016;2023-07-29T09:31:19;94503.41;;;26.33;76.67
54465;BME280;40374;49.480;20.016;2023-07-29T09:33:47;94508.97;;;26.80;81.30
54465;BME280;40374;49.480;20.016;2023-07-29T09:36:15;94514.34;;;27.52;70.60
54465;BME280;40374;49.480;20.016;2023-07-29T09:38:44;94506.00;;;27.70;69.36
54465;BME280;40374;49.480;20.016;2023-07-29T09:41:15;94500.41;;;27.84;62.54
54465;BME280;40374;49.480;20.016;2023-07-29T09:43:42;94509.41;;;28.03;63.34
54465;BME280;40374;49.480;20.016;2023-07-29T09:46:10;94500.09;;;27.68;60.08
54465;BME280;40374;49.480;20.016;2023-07-29T09:48:38;94504.19;;;27.09;62.04
54465;BME280;40374;49.480;20.016;2023-07-29T09:51:14;94495.88;;;27.17;70.78
54465;BME280;40374;49.480;20.016;2023-07-29T09:53:46;94496.91;;;27.73;75.07
54465;BME280;40374;49.480;20.016;2023-07-29T09:56:15;94495.97;;;28.05;65.56
54465;BME280;40374;49.480;20.016;2023-07-29T09:58:44;94493.47;;;28.81;67.33
54465;BME280;40374;49.480;20.016;2023-07-29T10:06:12;94490.28;;;28.30;57.64
54465;BME280;40374;49.480;20.016;2023-07-29T10:08:42;94489.22;;;28.13;60.60
54465;BME280;40374;49.480;20.016;2023-07-29T10:11:11;94475.06;;;28.63;65.49
54465;BME280;40374;49.480;20.016;2023-07-29T10:13:39;94490.47;;;29.13;57.58
54465;BME280;40374;49.480;20.016;2023-07-29T10:16:08;94480.25;;;28.99;58.26
54465;BME280;40374;49.480;20.016;2023-07-29T10:18:36;94478.06;;;29.25;57.50
54465;BME280;40374;49.480;20.016;2023-07-29T10:21:05;94480.34;;;30.29;61.56
54465;BME280;40374;49.480;20.016;2023-07-29T10:23:38;94472.63;;;31.15;56.08
54465;BME280;40374;49.480;20.016;2023-07-29T10:26:13;94487.22;;;31.19;52.18
54465;BME280;40374;49.480;20.016;2023-07-29T10:28:47;94486.88;;;31.37;56.80
54465;BME280;40374;49.480;20.016;2023-07-29T10:33:27;94482.19;;;32.14;58.00
54465;BME280;40374;49.480;20.016;2023-07-29T10:35:55;94481.72;;;33.17;55.10
54465;BME280;40374;49.480;20.016;2023-07-29T10:38:23;94481.88;;;34.27;52.74
54465;BME280;40374;49.480;20.016;2023-07-29T10:40:54;94486.44;;;34.60;49.14
54465;BME280;40374;49.480;20.016;2023-07-29T10:43:32;94476.84;;;34.48;49.89
54465;BME280;40374;49.480;20.016;2023-07-29T10:46:22;94484.91;;;34.71;47.18
54465;BME280;40374;49.480;20.016;2023-07-29T10:50:25;94484.00;;;34.49;49.08
54465;BME280;40374;49.480;20.016;2023-07-29T10:52:58;94489.06;;;33.99;49.02
54465;BME280;40374;49.480;20.016;2023-07-29T10:55:34;94466.47;;;33.51;48.86
54465;BME280;40374;49.480;20.016;2023-07-29T11:00:36;94488.72;;;32.93;50.91
54465;BME280;40374;49.480;20.016;2023-07-29T11:03:07;94493.66;;;32.85;50.48
54465;BME280;40374;49.480;20.016;2023-07-29T11:06:04;94496.00;;;32.54;50.89
54465;BME280;40374;49.480;20.016;2023-07-29T11:08:32;94486.75;;;32.04;52.05
54465;BME280;40374;49.480;20.016;2023-07-29T11:11:08;94496.19;;;31.50;51.22
54465;BME280;40374;49.480;20.016;2023-07-29T11:13:40;94492.09;;;30.91;52.87
54465;BME280;40374;49.480;20.016;2023-07-29T11:16:10;94499.88;;;30.49;54.21
54465;BME280;40374;49.480;20.016;2023-07-29T11:18:44;94500.78;;;30.12;54.56
54465;BME280;40374;49.480;20.016;2023-07-29T11:52:10;94523.78;;;25.93;73.15
54465;BME280;40374;49.480;20.016;2023-07-29T12:01:38;94514.91;;;25.44;76.83
54465;BME280;40374;49.480;20.016;2023-07-29T12:04:06;94513.75;;;25.49;76.66
54465;BME280;40374;49.480;20.016;2023-07-29T12:06:34;94501.34;;;25.10;75.10
54465;BME280;40374;49.480;20.016;2023-07-29T13:31:53;94466.38;;;26.45;100.00
54465;BME280;40374;49.480;20.016;2023-07-29T13:34:21;94462.50;;;27.85;87.76
54465;BME280;40374;49.480;20.016;2023-07-29T13:36:49;94475.41;;;28.13;76.77
54465;BME280;40374;49.480;20.016;2023-07-29T13:39:16;94474.47;;;28.34;75.53
54465;BME280;40374;49.480;20.016;2023-07-29T13:41:44;94478.88;;;28.80;71.42
54465;BME280;40374;49.480;20.016;2023-07-29T13:44:11;94471.69;;;28.86;68.72
54465;BME280;40374;49.480;20.016;2023-07-29T15:26:34;94460.88;;;26.78;100.00
54465;BME280;40374;49.480;20.016;2023-07-29T15:29:03;94452.41;;;28.23;100.00
54465;BME280;40374;49.480;20.016;2023-07-29T15:31:30;94467.41;;;29.23;100.00
54465;BME280;40374;49.480;20.016;2023-07-29T15:33:58;94464.53;;;29.65;99.52
54465;BME280;40374;49.480;20.016;2023-07-29T15:36:25;94463.41;;;29.59;91.90
54465;BME280;40374;49.480;20.016;2023-07-29T20:18:39;62409.59;;;-145.97;100.00
54465;BME280;40374;49.480;20.016;2023-07-29T20:22:09;62409.59;;;-145.97;100.00
54465;BME280;40374;49.480;20.016;2023-07-29T20:25:35;62409.59;;;-145.97;100.00
54465;BME280;40374;49.480;20.016;2023-07-29T20:29:02;62409.59;;;-145.97;100.00
54465;BME280;40374;49.480;20.016;2023-07-29T20:32:28;62409.59;;;-145.97;100.00
54465;BME280;40374;49.480;20.016;2023-07-29T20:35:58;62409.59;;;-145.97;100.00
54465;BME280;40374;49.480;20.016;2023-07-29T20:39:24;62409.59;;;-145.97;100.00
54465;BME280;40374;49.480;20.016;2023-07-29T20:42:51;62409.59;;;-145.97;100.00
54465;BME280;40374;49.480;20.016;2023-07-29T20:46:18;62409.59;;;-145.97;100.00
54465;BME280;40374;49.480;20.016;2023-07-29T20:49:45;62409.59;;;-145.97;100.00
54465;BME280;40374;49.480;20.016;2023-07-29T20:53:11;62409.59;;;-145.97;100.00
54465;BME280;40374;49.480;20.016;2023-07-29T20:56:37;62409.59;;;-145.97;100.00
54465;BME280;40374;49.480;20.016;2023-07-29T21:00:03;62409.59;;;-145.97;100.00
54465;BME280;40374;49.480;20.016;2023-07-29T21:03:30;62409.59;;;-145.97;100.00
54465;BME280;40374;49.480;20.016;2023-07-29T21:06:56;62409.59;;;-145.97;100.00
54465;BME280;40374;49.480;20.016;2023-07-29T21:10:23;62409.59;;;-145.97;100.00
54465;BME280;40374;49.480;20.016;2023-07-29T21:13:50;62409.59;;;-145.97;100.00
54465;BME280;40374;49.480;20.016;2023-07-29T21:17:17;62409.59;;;-145.97;100.00
54465;BME280;40374;49.480;20.016;2023-07-29T21:20:43;62409.59;;;-145.97;100.00
54465;BME280;40374;49.480;20.016;2023-07-29T21:24:09;62409.59;;;-145.97;100.00
54465;BME280;40374;49.480;20.016;2023-07-29T21:27:35;62409.59;;;-145.97;100.00
54465;BME280;40374;49.480;20.016;2023-07-29T21:31:02;62409.59;;;-145.97;100.00
54465;BME280;40374;49.480;20.016;2023-07-29T21:34:28;62409.59;;;-145.97;100.00
54465;BME280;40374;49.480;20.016;2023-07-29T21:37:55;62409.59;;;-145.97;100.00
54465;BME280;40374;49.480;20.016;2023-07-29T21:41:20;62409.59;;;-145.97;100.00
54465;BME280;40374;49.480;20.016;2023-07-29T21:44:47;62409.59;;;-145.97;100.00
54465;BME280;40374;49.480;20.016;2023-07-29T21:48:12;62409.59;;;-145.97;100.00
54465;BME280;40374;49.480;20.016;2023-07-29T21:51:41;62409.59;;;-145.97;100.00
54465;BME280;40374;49.480;20.016;2023-07-29T21:55:07;62409.59;;;-145.97;100.00
54465;BME280;40374;49.480;20.016;2023-07-29T21:58:34;62409.59;;;-145.97;100.00
54465;BME280;40374;49.480;20.016;2023-07-29T22:02:00;62409.59;;;-145.97;100.00
54465;BME280;40374;49.480;20.016;2023-07-29T22:05:26;62409.59;;;-145.97;100.00
54465;BME280;40374;49.480;20.016;2023-07-29T22:08:52;62409.59;;;-145.97;100.00
54465;BME280;40374;49.480;20.016;2023-07-29T22:12:18;62409.59;;;-145.97;100.00
54465;BME280;40374;49.480;20.016;2023-07-29T22:15:44;62409.59;;;-145.97;100.00
54465;BME280;40374;49.480;20.016;2023-07-29T22:19:10;62409.59;;;-145.97;100.00
54465;BME280;40374;49.480;20.016;2023-07-29T22:22:36;62409.59;;;-145.97;100.00
54465;BME280;40374;49.480;20.016;2023-07-29T22:26:03;62409.59;;;-145.97;100.00
54465;BME280;40374;49.480;20.016;2023-07-29T22:29:30;62409.59;;;-145.97;100.00
54465;BME280;40374;49.480;20.016;2023-07-29T22:32:56;62409.59;;;-145.97;100.00
54465;BME280;40374;49.480;20.016;2023-07-29T22:36:22;62409.59;;;-145.97;100.00
54465;BME280;40374;49.480;20.016;2023-07-29T22:39:50;62409.59;;;-145.97;100.00
54465;BME280;40374;49.480;20.016;2023-07-29T22:43:15;62409.59;;;-145.97;100.00
54465;BME280;40374;49.480;20.016;2023-07-29T22:46:47;62409.59;;;-145.97;100.00
54465;BME280;40374;49.480;20.016;2023-07-29T22:50:13;62409.59;;;-145.97;100.00
54465;BME280;40374;49.480;20.016;2023-07-29T22:53:39;62409.59;;;-145.97;100.00
54465;BME280;40374;49.480;20.016;2023-07-29T22:57:05;62409.59;;;-145.97;100.00
54465;BME280;40374;49.480;20.016;2023-07-29T23:00:31;62409.59;;;-145.97;100.00
54465;BME280;40374;49.480;20.016;2023-07-29T23:03:57;62409.59;;;-145.97;100.00
54465;BME280;40374;49.480;20.016;2023-07-29T23:07:23;62409.59;;;-145.97;100.00
54465;BME280;40374;49.480;20.016;2023-07-29T23:10:49;62409.59;;;-145.97;100.00
54465;BME280;40374;49.480;20.016;2023-07-29T23:14:15;62409.59;;;-145.97;100.00
54465;BME280;40374;49.480;20.016;2023-07-29T23:17:42;62409.59;;;-145.97;100.00
54465;BME280;40374;49.480;20.016;2023-07-29T23:21:09;62409.59;;;-145.97;100.00
54465;BME280;40374;49.480;20.016;2023-07-29T23:24:35;62409.59;;;-145.97;100.00
54465;BME280;40374;49.480;20.016;2023-07-29T23:28:01;62409.59;;;-145.97;100.00
54465;BME280;40374;49.480;20.016;2023-07-29T23:31:27;62409.59;;;-145.97;100.00
54465;BME280;40374;49.480;20.016;2023-07-29T23:34:53;62409.59;;;-145.97;100.00
54465;BME280;40374;49.480;20.016;2023-07-29T23:38:19;62409.59;;;-145.97;100.00
54465;BME280;40374;49.480;20.016;2023-07-29T23:41:47;62409.59;;;-145.97;100.00
54465;BME280;40374;49.480;20.016;2023-07-29T23:45:13;62409.59;;;-145.97;100.00
54465;BME280;40374;49.480;20.016;2023-07-29T23:48:39;62409.59;;;-145.97;100.00
54465;BME280;40374;49.480;20.016;2023-07-29T23:52:05;62409.59;;;-145.97;100.00
54465;BME280;40374;49.480;20.016;2023-07-29T23:55:31;62409.59;;;-145.97;100.00
54465;BME280;40374;49.480;20.016;2023-07-29T23:58:28;62409.59;;;-145.97;100.00
